Time;durP1;ratioP1;P1;durP2;ratioP2;P2;SDS_P1;SDS_P2;PMS_P1;PMS_P2;Temp;Humidity;BMP_temperature;BMP_pressure;BME280_temperature;BME280_humidity;BME280_pressure;Samples;Min_cycle;Max_cycle;Signal;HPM_P1;HPM_P2
2024/01/06 06:56:28;;;;;;;11.05;7.53;;;;;;;;;;6307690;22;20018;-79
2024/01/06 07:20:36;;;;;;;;;;;;;;;;;;;;;
2024/01/06 08:16:19;;;;;;;11.93;7.35;;;;;;;;;;6277420;22;20298;-78
2024/01/06 08:19:15;;;;;;;10.95;7.45;;;;;;;;;;6276674;22;20015;-78
2024/01/06 08:28:51;;;;;;;;;;;;;;;;;;;;;
2024/01/06 08:55:27;;;;;;;14.82;7.90;;;;;;;;;;6279270;22;20022;-79
2024/01/06 09:05:08;;;;;;;13.93;9.63;;;;;;;;;;6280016;22;20466;-79
2024/01/06 09:57:21;;;;;;;16.27;8.93;;;;;;;;;;6282833;22;20400;-79
2024/01/06 10:00:24;;;;;;;15.85;8.43;;;;;;;;;;6250758;22;20028;-80
2024/01/06 10:09:48;;;;;;;13.63;7.30;;;;;;;;;;6308925;22;20007;-79
2024/01/06 10:16:27;;;;;;;12.98;7.57;;;;;;;;;;6215926;23;20369;-79
2024/01/06 10:22:32;;;;;;;14.68;8.15;;;;;;;;;;6313463;22;20011;-79
2024/01/06 10:25:08;;;;;;;11.63;8.07;;;;;;;;;;6310133;22;20051;-79
2024/01/06 10:27:40;;;;;;;14.40;8.25;;;;;;;;;;6310774;22;20106;-79
2024/01/06 10:30:17;;;;;;;14.27;8.20;;;;;;;;;;6311627;22;20015;-79
2024/01/06 10:32:52;;;;;;;14.77;8.27;;;;;;;;;;6282700;22;20031;-78
2024/01/06 10:35:19;;;;;;;11.82;8.27;;;;;;;;;;6309315;22;20015;-79
2024/01/06 10:37:49;;;;;;;11.23;7.40;;;;;;;;;;6283459;22;20026;-79
2024/01/06 10:40:16;;;;;;;14.95;8.35;;;;;;;;;;6281050;22;20019;-78
2024/01/06 10:42:43;;;;;;;12.15;8.00;;;;;;;;;;6256505;22;20028;-79
2024/01/06 10:45:13;;;;;;;12.63;7.78;;;;;;;;;;6283798;22;20019;-78
2024/01/06 10:47:40;;;;;;;12.45;7.75;;;;;;;;;;6283202;22;20046;-79
2024/01/06 10:50:14;;;;;;;12.70;7.63;;;;;;;;;;6283747;22;20026;-79
2024/01/06 10:52:51;;;;;;;11.38;7.85;;;;;;;;;;6284446;22;20518;-80
2024/01/06 10:55:20;;;;;;;12.10;8.63;;;;;;;;;;6282637;22;20072;-79
2024/01/06 10:57:51;;;;;;;12.88;7.40;;;;;;;;;;6307917;22;20470;-79
2024/01/06 11:00:18;;;;;;;13.18;8.00;;;;;;;;;;6307446;22;20061;-79
2024/01/06 11:02:46;;;;;;;9.70;7.00;;;;;;;;;;6281262;22;20015;-79
2024/01/06 11:05:15;;;;;;;11.23;7.43;;;;;;;;;;6281894;22;20027;-79
2024/01/06 11:07:54;;;;;;;15.57;8.57;;;;;;;;;;6257232;22;20397;-79
2024/01/06 11:10:27;;;;;;;16.10;7.32;;;;;;;;;;6280516;22;20019;-79
2024/01/06 11:13:20;;;;;;;12.45;7.93;;;;;;;;;;6308841;22;20330;-78
2024/01/06 11:16:00;;;;;;;13.80;7.32;;;;;;;;;;6282697;22;20090;-79
2024/01/06 11:18:39;;;;;;;10.27;7.10;;;;;;;;;;6283113;22;20521;-79
2024/01/06 11:21:12;;;;;;;;;;;;;;;;;;6310447;22;20019;-78
2024/01/06 11:23:44;;;;;;;11.63;7.20;;;;;;;;;;6281125;22;19922;-79
2024/01/06 11:26:11;;;;;;;12.23;7.35;;;;;;;;;;6282182;22;20019;-78
2024/01/06 11:28:47;;;;;;;12.60;7.90;;;;;;;;;;6257496;22;20015;-79
2024/01/06 11:31:32;;;;;;;10.52;7.40;;;;;;;;;;6311121;22;20023;-79
2024/01/06 11:34:20;;;;;;;11.60;6.82;;;;;;;;;;6310627;22;20117;-78
2024/01/06 11:37:09;;;;;;;9.85;6.97;;;;;;;;;;6309047;22;20022;-79
2024/01/06 11:39:38;;;;;;;11.05;7.20;;;;;;;;;;6282753;22;20023;-79
2024/01/06 11:42:04;;;;;;;10.00;6.75;;;;;;;;;;6256685;22;20340;-78
2024/01/06 11:44:34;;;;;;;12.73;7.13;;;;;;;;;;6256939;22;20023;-79
2024/01/06 11:47:00;;;;;;;13.02;7.55;;;;;;;;;;6255251;22;20019;-77
2024/01/06 11:49:30;;;;;;;9.90;6.45;;;;;;;;;;6256511;22;20011;-78
2024/01/06 11:52:02;;;;;;;9.88;6.82;;;;;;;;;;6255235;22;20460;-78
2024/01/06 11:54:28;;;;;;;9.75;6.70;;;;;;;;;;6255965;22;20015;-78
2024/01/06 11:56:56;;;;;;;9.23;6.45;;;;;;;;;;6256219;22;20015;-78
2024/01/06 11:59:27;;;;;;;9.00;6.30;;;;;;;;;;6256184;22;20019;-78
2024/01/06 12:01:53;;;;;;;10.82;6.78;;;;;;;;;;6256050;22;20019;-78
2024/01/06 12:04:22;;;;;;;10.05;6.90;;;;;;;;;;6255835;22;20022;-77
2024/01/06 12:06:48;;;;;;;10.05;7.25;;;;;;;;;;6255910;22;20019;-78
2024/01/06 12:09:19;;;;;;;13.48;6.95;;;;;;;;;;6255116;22;20017;-78
2024/01/06 12:11:48;;;;;;;10.60;7.00;;;;;;;;;;6255309;22;20094;-78
2024/01/06 12:14:15;;;;;;;9.52;6.90;;;;;;;;;;6282024;22;20011;-78
2024/01/06 12:16:42;;;;;;;10.25;6.70;;;;;;;;;;6255896;22;20069;-78
2024/01/06 12:19:08;;;;;;;10.73;6.47;;;;;;;;;;6255727;22;20015;-78
2024/01/06 12:21:37;;;;;;;10.02;6.70;;;;;;;;;;6255813;22;20344;-78
2024/01/06 12:24:17;;;;;;;12.07;6.88;;;;;;;;;;6255800;22;20019;-78
2024/01/06 12:26:43;;;;;;;13.27;7.20;;;;;;;;;;6255749;22;20392;-79
2024/01/06 12:29:09;;;;;;;10.60;6.10;;;;;;;;;;6255407;22;20487;-78
2024/01/06 12:31:36;;;;;;;11.07;6.53;;;;;;;;;;6281322;22;20077;-78
2024/01/06 12:34:04;;;;;;;10.60;6.10;;;;;;;;;;6255946;22;20011;-78
2024/01/06 12:36:30;;;;;;;11.98;6.63;;;;;;;;;;6254558;22;20099;-78
2024/01/06 12:38:58;;;;;;;10.48;6.68;;;;;;;;;;6255937;22;20041;-78
2024/01/06 12:41:25;;;;;;;11.57;6.05;;;;;;;;;;6255969;22;20443;-80
2024/01/06 12:43:51;;;;;;;9.57;6.25;;;;;;;;;;6261562;22;20046;-78
2024/01/06 12:46:17;;;;;;;10.25;5.57;;;;;;;;;;6255824;22;20026;-78
2024/01/06 12:48:43;;;;;;;9.13;5.70;;;;;;;;;;6256323;22;20125;-78
2024/01/06 12:51:17;;;;;;;8.90;5.82;;;;;;;;;;6256246;22;20075;-78
2024/01/06 12:53:44;;;;;;;9.38;5.50;;;;;;;;;;6258098;22;20030;-78
2024/01/06 12:56:21;;;;;;;7.78;5.80;;;;;;;;;;6255603;22;20016;-78
2024/01/06 12:58:53;;;;;;;9.75;6.30;;;;;;;;;;6257480;22;20015;-79
2024/01/06 13:01:19;;;;;;;8.73;5.65;;;;;;;;;;6257891;22;20472;-78
2024/01/06 13:03:45;;;;;;;10.90;6.22;;;;;;;;;;6255481;22;20313;-78
2024/01/06 13:06:12;;;;;;;9.07;5.90;;;;;;;;;;6256282;22;20476;-78
2024/01/06 13:08:38;;;;;;;9.00;5.63;;;;;;;;;;6256094;22;20015;-78
2024/01/06 13:11:04;;;;;;;8.50;5.68;;;;;;;;;;6255367;22;20050;-78
2024/01/06 13:13:31;;;;;;;9.32;6.40;;;;;;;;;;6255483;22;20040;-78
2024/01/06 13:16:00;;;;;;;8.82;5.70;;;;;;;;;;6256156;22;20019;-78
2024/01/06 13:18:26;;;;;;;10.00;6.30;;;;;;;;;;6256656;22;20447;-78
2024/01/06 13:20:53;;;;;;;8.40;5.55;;;;;;;;;;6256231;22;20080;-78
2024/01/06 13:23:19;;;;;;;9.35;6.30;;;;;;;;;;6256329;22;20016;-79
2024/01/06 13:25:45;;;;;;;8.23;5.25;;;;;;;;;;6256342;22;20339;-79
2024/01/06 13:28:12;;;;;;;9.60;5.97;;;;;;;;;;6256192;22;20015;-79
2024/01/06 13:30:39;;;;;;;9.40;5.78;;;;;;;;;;6256844;22;20459;-79
2024/01/06 13:33:05;;;;;;;9.55;5.93;;;;;;;;;;6256271;22;20065;-79
2024/01/06 13:35:32;;;;;;;8.50;5.78;;;;;;;;;;6256311;22;20019;-79
2024/01/06 13:37:58;;;;;;;9.63;5.70;;;;;;;;;;6257640;22;20015;-79
2024/01/06 13:40:24;;;;;;;10.90;6.25;;;;;;;;;;6256951;22;20068;-79
2024/01/06 13:42:52;;;;;;;9.65;6.05;;;;;;;;;;6256926;22;20027;-79
2024/01/06 13:45:21;;;;;;;9.23;5.70;;;;;;;;;;6254867;22;20023;-79
2024/01/06 13:48:05;;;;;;;7.95;5.53;;;;;;;;;;6256923;22;20030;-79
2024/01/06 13:50:32;;;;;;;7.63;5.50;;;;;;;;;;6255398;22;20458;-79
2024/01/06 13:52:58;;;;;;;9.68;5.90;;;;;;;;;;6256286;22;20453;-79
2024/01/06 13:55:25;;;;;;;10.02;5.82;;;;;;;;;;6256103;22;20017;-79
2024/01/06 13:58:36;;;;;;;8.45;5.78;;;;;;;;;;6256419;22;20015;-79
2024/01/06 14:01:02;;;;;;;8.85;5.68;;;;;;;;;;6105903;23;20462;-79
2024/01/06 14:03:39;;;;;;;8.88;5.97;;;;;;;;;;6107511;23;20052;-79
2024/01/06 14:06:13;;;;;;;10.68;5.65;;;;;;;;;;6200662;22;20015;-79
2024/01/06 14:08:41;;;;;;;8.15;5.72;;;;;;;;;;6257845;22;20094;-79
2024/01/06 14:11:07;;;;;;;7.45;5.93;;;;;;;;;;6256278;22;20064;-79
2024/01/06 14:13:33;;;;;;;8.80;5.68;;;;;;;;;;6257282;22;20471;-79
2024/01/06 14:16:15;;;;;;;9.30;5.40;;;;;;;;;;6258291;22;20084;-79
2024/01/06 14:18:44;;;;;;;9.25;5.78;;;;;;;;;;6256462;22;20019;-79
2024/01/06 14:21:19;;;;;;;8.60;5.35;;;;;;;;;;6257340;22;20339;-79
2024/01/06 14:24:08;;;;;;;7.13;4.95;;;;;;;;;;6256979;22;20088;-79
2024/01/06 14:26:38;;;;;;;7.82;5.55;;;;;;;;;;6259839;22;20026;-80
2024/01/06 14:32:40;;;;;;;8.02;5.50;;;;;;;;;;6221097;23;20020;-80
2024/01/06 14:35:11;;;;;;;7.85;5.20;;;;;;;;;;6194995;23;20016;-79
2024/01/06 14:37:40;;;;;;;7.38;5.07;;;;;;;;;;6194633;23;20063;-79
2024/01/06 14:40:07;;;;;;;7.93;5.38;;;;;;;;;;6219200;23;20016;-79
2024/01/06 14:42:33;;;;;;;6.63;4.72;;;;;;;;;;6193455;23;20012;-78
2024/01/06 14:45:00;;;;;;;6.95;5.18;;;;;;;;;;6194003;23;20016;-78
2024/01/06 14:47:26;;;;;;;7.82;5.03;;;;;;;;;;6191966;23;20023;-78
2024/01/06 14:50:10;;;;;;;8.00;4.95;;;;;;;;;;6217829;23;20058;-80
2024/01/06 14:52:36;;;;;;;6.90;5.03;;;;;;;;;;6191891;23;20016;-78
2024/01/06 14:55:03;;;;;;;6.53;5.05;;;;;;;;;;6191853;23;20016;-78
2024/01/06 14:57:29;;;;;;;8.63;4.63;;;;;;;;;;6192378;23;20098;-78
2024/01/06 14:59:55;;;;;;;8.43;4.95;;;;;;;;;;6218908;22;20098;-78
2024/01/06 15:02:21;;;;;;;7.78;4.78;;;;;;;;;;6253588;22;20042;-78
2024/01/06 15:04:47;;;;;;;7.07;4.32;;;;;;;;;;6253823;22;20106;-78
2024/01/06 15:07:13;;;;;;;6.50;4.60;;;;;;;;;;6279861;22;20339;-78
2024/01/06 15:09:43;;;;;;;7.57;4.20;;;;;;;;;;6253746;22;20016;-78
2024/01/06 15:12:09;;;;;;;5.25;3.75;;;;;;;;;;6253434;22;20019;-78
2024/01/06 15:14:35;;;;;;;5.70;3.70;;;;;;;;;;6253862;22;20011;-78
2024/01/06 15:17:01;;;;;;;6.85;4.28;;;;;;;;;;6254173;22;20019;-78
2024/01/06 15:19:30;;;;;;;6.75;4.05;;;;;;;;;;6254194;22;20015;-78
2024/01/06 15:21:58;;;;;;;4.40;3.47;;;;;;;;;;6279708;22;20026;-78
2024/01/06 15:24:24;;;;;;;6.47;3.70;;;;;;;;;;6253705;22;20356;-78
2024/01/06 15:26:53;;;;;;;5.30;4.10;;;;;;;;;;6253539;22;20021;-78
2024/01/06 15:29:19;;;;;;;6.57;4.13;;;;;;;;;;6253894;22;20145;-78
2024/01/06 15:31:46;;;;;;;5.70;3.92;;;;;;;;;;6253427;22;20015;-78
2024/01/06 15:34:12;;;;;;;5.90;4.07;;;;;;;;;;6253373;22;20042;-78
2024/01/06 15:36:38;;;;;;;5.38;4.03;;;;;;;;;;6253869;22;20019;-78
2024/01/06 15:39:07;;;;;;;6.03;4.20;;;;;;;;;;6254455;22;20022;-79
2024/01/06 15:41:33;;;;;;;8.02;4.18;;;;;;;;;;6253569;22;20018;-78
2024/01/06 15:43:59;;;;;;;5.90;3.70;;;;;;;;;;6253464;22;20019;-78
2024/01/06 15:46:25;;;;;;;6.68;4.40;;;;;;;;;;6253171;22;20026;-78
2024/01/06 15:48:51;;;;;;;6.43;4.68;;;;;;;;;;6253625;22;20023;-78
2024/01/06 15:51:17;;;;;;;8.63;4.90;;;;;;;;;;6253604;22;20047;-78
2024/01/06 15:53:46;;;;;;;7.05;4.63;;;;;;;;;;6254045;22;20015;-78
2024/01/06 15:56:12;;;;;;;7.15;4.68;;;;;;;;;;6253498;22;20077;-78
2024/01/06 15:58:38;;;;;;;5.90;4.32;;;;;;;;;;6255072;22;20061;-78
2024/01/06 16:01:05;;;;;;;7.07;4.60;;;;;;;;;;6280470;22;20051;-78
2024/01/06 16:03:32;;;;;;;8.52;4.70;;;;;;;;;;6280584;22;20090;-78
2024/01/06 16:05:58;;;;;;;7.65;4.68;;;;;;;;;;6255121;22;20011;-78
2024/01/06 16:08:24;;;;;;;8.02;5.28;;;;;;;;;;6254900;22;20019;-78
2024/01/06 16:10:51;;;;;;;8.98;5.75;;;;;;;;;;6255567;22;20019;-78
2024/01/06 16:13:18;;;;;;;8.18;4.93;;;;;;;;;;6255373;22;20084;-78
2024/01/06 16:15:44;;;;;;;6.63;4.53;;;;;;;;;;6254927;22;20022;-78
2024/01/06 16:18:10;;;;;;;7.10;4.93;;;;;;;;;;6254873;22;20054;-78
2024/01/06 16:20:36;;;;;;;6.68;4.88;;;;;;;;;;6254386;22;20394;-78
2024/01/06 16:23:06;;;;;;;7.70;4.57;;;;;;;;;;6255263;22;20035;-78
2024/01/06 16:25:33;;;;;;;7.07;4.28;;;;;;;;;;6281037;22;20016;-78
2024/01/06 16:27:59;;;;;;;5.97;4.55;;;;;;;;;;6255256;22;20100;-78
2024/01/06 16:30:25;;;;;;;7.47;4.28;;;;;;;;;;6280514;22;20015;-78
2024/01/06 16:32:51;;;;;;;6.65;4.47;;;;;;;;;;6255702;22;20444;-78
2024/01/06 16:35:17;;;;;;;8.10;4.35;;;;;;;;;;6255481;22;20102;-78
2024/01/06 16:37:44;;;;;;;11.55;5.35;;;;;;;;;;6255731;22;20023;-78
2024/01/06 16:40:10;;;;;;;6.65;4.78;;;;;;;;;;6255279;22;20011;-78
2024/01/06 16:42:39;;;;;;;6.55;4.43;;;;;;;;;;6255030;22;20402;-78
2024/01/06 16:45:06;;;;;;;8.40;5.88;;;;;;;;;;6254855;22;20023;-78
2024/01/06 16:47:35;;;;;;;7.10;5.40;;;;;;;;;;6256027;22;20455;-78
2024/01/06 16:50:01;;;;;;;7.95;5.75;;;;;;;;;;6255841;22;20015;-78
2024/01/06 16:52:27;;;;;;;9.73;6.15;;;;;;;;;;6255393;22;20031;-78
2024/01/06 16:54:53;;;;;;;8.88;6.38;;;;;;;;;;6254849;22;20022;-78
2024/01/06 16:57:22;;;;;;;9.27;6.10;;;;;;;;;;6254266;22;20102;-79
2024/01/06 16:59:54;;;;;;;9.93;6.43;;;;;;;;;;6255141;22;20046;-78
2024/01/06 17:15:29;;;;;;;;;;;;;;;;;;;;;
2024/01/06 17:18:23;;;;;;;9.15;5.93;;;;;;;;;;6127826;23;20017;-78
2024/01/06 17:34:11;;;;;;;;;;;;;;;;;;;;;
2024/01/06 17:37:14;;;;;;;9.20;5.72;;;;;;;;;;6152399;23;20021;-79
2024/01/06 17:39:43;;;;;;;9.63;5.85;;;;;;;;;;6121016;23;20481;-78
2024/01/06 17:43:18;;;;;;;9.32;5.60;;;;;;;;;;6208412;22;20041;-79
2024/01/06 17:45:58;;;;;;;9.18;6.20;;;;;;;;;;6272949;22;20025;-79
2024/01/06 17:51:37;;;;;;;10.43;6.70;;;;;;;;;;6242892;23;20020;-80
2024/01/06 17:54:20;;;;;;;10.18;6.15;;;;;;;;;;6184591;23;20012;-79
2024/01/06 17:56:49;;;;;;;9.27;6.82;;;;;;;;;;6192183;23;20027;-79
2024/01/06 18:26:16;;;;;;;9.63;5.68;;;;;;;;;;6154218;23;20005;-78
2024/01/06 20:51:19;;;;;;;;;;;;;;;;;;;;;
2024/01/06 21:47:04;;;;;;;13.48;7.30;;;;;;;;;;6150487;23;20096;-80
2024/01/06 21:49:55;;;;;;;12.93;7.20;;;;;;;;;;6219877;22;20031;-77
2024/01/06 21:53:02;;;;;;;11.52;6.65;;;;;;;;;;6220330;22;20031;-78
2024/01/06 21:55:47;;;;;;;11.02;6.65;;;;;;;;;;6221359;22;20526;-78
2024/01/06 21:58:19;;;;;;;12.05;6.65;;;;;;;;;;6219938;22;20016;-78
2024/01/06 22:00:45;;;;;;;10.20;6.50;;;;;;;;;;6221205;22;20020;-78
2024/01/06 22:03:25;;;;;;;10.07;6.43;;;;;;;;;;6212976;22;20015;-78
2024/01/06 22:06:10;;;;;;;9.95;6.20;;;;;;;;;;6223051;22;20355;-78
2024/01/06 22:08:48;;;;;;;11.18;7.25;;;;;;;;;;6225174;22;20020;-78
2024/01/06 22:11:56;;;;;;;;;;;;;;;;;;;;;
2024/01/06 22:14:53;;;;;;;;;;;;;;;;;;;;;
2024/01/06 22:17:28;;;;;;;11.45;6.93;;;;;;;;;;6278874;22;20053;-78
2024/01/06 22:19:58;;;;;;;15.27;6.43;;;;;;;;;;6253387;22;20060;-78
2024/01/06 22:22:41;;;;;;;13.30;6.45;;;;;;;;;;6215660;23;20455;-78
2024/01/06 22:25:28;;;;;;;;;;;;;;;;;;;;;
2024/01/06 22:31:43;;;;;;;;;;;;;;;;;;;;;
2024/01/06 22:37:38;;;;;;;11.18;6.38;;;;;;;;;;6200319;23;20031;-78
2024/01/06 22:40:57;;;;;;;13.98;6.93;;;;;;;;;;6214640;23;20016;-78
2024/01/06 22:43:53;;;;;;;9.02;5.93;;;;;;;;;;6127050;23;20035;-79
2024/01/06 22:50:40;;;;;;;;;;;;;;;;;;;;;
2024/01/06 22:53:33;;;;;;;11.02;5.97;;;;;;;;;;6272931;22;20014;-78
2024/01/06 23:06:15;;;;;;;10.38;5.65;;;;;;;;;;6183855;23;20040;-78
2024/01/06 23:12:42;;;;;;;;;;;;;;;;;;;;;
2024/01/06 23:15:59;;;;;;;9.20;5.88;;;;;;;;;;6210051;23;20139;-78
2024/01/06 23:18:47;;;;;;;9.02;5.97;;;;;;;;;;6125901;23;20033;-78
2024/01/06 23:28:26;;;;;;;7.63;5.95;;;;;;;;;;6215331;23;20018;-78
2024/01/06 23:46:05;;;;;;;9.20;5.57;;;;;;;;;;6137614;23;20025;-78
2024/01/06 23:49:16;;;;;;;8.77;6.13;;;;;;;;;;6116981;23;20064;-79
2024/01/06 23:52:08;;;;;;;9.07;5.50;;;;;;;;;;6159419;23;20051;-78
2024/01/06 23:54:46;;;;;;;10.23;6.20;;;;;;;;;;6159077;23;20020;-79
2024/01/06 23:57:26;;;;;;;9.05;6.00;;;;;;;;;;6186057;23;20017;-78
